Time;durP1;ratioP1;P1;durP2;ratioP2;P2;SDS_P1;SDS_P2;PMS_P1;PMS_P2;Temp;Humidity;BMP_temperature;BMP_pressure;BME280_temperature;BME280_humidity;BME280_pressure;Samples;Min_cycle;Max_cycle;Signal;HPM_P1;HPM_P2
2022/12/25 00:00:15;;;;;;;;;;;;;;;8.49;81.99;98217.25;5100178;28;20272;-57
2022/12/25 00:02:47;;;;;;;;;;;;;;;8.44;81.90;98220.03;5099415;28;19931;-56
2022/12/25 00:05:16;;;;;;;;;;;;;;;8.49;81.76;98209.16;5086059;28;19928;-56
2022/12/25 00:07:45;;;;;;;;;;;;;;;8.50;81.65;98208.84;5099239;28;19982;-57
2022/12/25 00:10:16;;;;;;;;;;;;;;;8.45;81.91;98205.41;5100166;28;19923;-57
2022/12/25 00:13:09;;;;;;;;;;;;;;;8.32;82.29;98202.28;5095914;28;19947;-57
2022/12/25 00:15:40;;;;;;;;;;;;;;;8.38;82.23;98206.56;5083453;28;19967;-56
2022/12/25 00:18:09;;;;;;;;;;;;;;;8.35;82.08;98196.25;5098696;28;19924;-56
2022/12/25 00:21:03;;;;;;;;;;;;;;;8.31;82.21;98200.66;5095547;28;19928;-57
2022/12/25 00:23:31;;;;;;;;;;;;;;;8.28;81.72;98206.66;5103555;28;19924;-57
2022/12/25 00:26:00;;;;;;;;;;;;;;;8.28;82.07;98209.34;5103314;28;19924;-57
2022/12/25 00:28:28;;;;;;;;;;;;;;;8.21;82.32;98208.09;5102922;28;19924;-56
2022/12/25 00:30:58;;;;;;;;;;;;;;;8.18;82.69;98198.66;5100167;28;19978;-57
2022/12/25 00:33:26;;;;;;;;;;;;;;;8.02;83.21;98186.38;5079725;28;19924;-56
2022/12/25 00:35:57;;;;;;;;;;;;;;;8.08;83.18;98190.63;5101001;28;19928;-56
2022/12/25 00:38:25;;;;;;;;;;;;;;;8.11;82.91;98200.91;5098059;28;19924;-56
2022/12/25 00:42:17;;;;;;;;;;;;;;;8.18;82.60;98204.06;5081087;28;19932;-57
2022/12/25 00:44:06;;;;;;;;;;;;;;;8.05;83.32;98199.34;5106725;28;19924;-57
2022/12/25 00:46:35;;;;;;;;;;;;;;;8.13;83.29;98204.13;5092704;28;19924;-61
2022/12/25 00:49:04;;;;;;;;;;;;;;;8.24;82.79;98208.31;5097585;28;19928;-60
2022/12/25 00:51:33;;;;;;;;;;;;;;;8.09;83.04;98198.47;5080986;28;19934;-58
2022/12/25 00:54:01;;;;;;;;;;;;;;;8.19;82.52;98194.84;5097132;28;19923;-56
2022/12/25 00:56:29;;;;;;;;;;;;;;;8.10;82.81;98188.47;5084973;28;19924;-56
2022/12/25 00:58:58;;;;;;;;;;;;;;;8.19;82.80;98188.63;5096891;28;20407;-56
2022/12/25 01:01:25;;;;;;;;;;;;;;;8.19;82.49;98194.84;5104870;28;19924;-57
2022/12/25 01:03:56;;;;;;;;;;;;;;;8.20;82.59;98204.56;5079470;28;19928;-56
2022/12/25 01:06:24;;;;;;;;;;;;;;;8.16;82.71;98203.56;5087661;28;19928;-56
2022/12/25 01:11:33;;;;;;;;;;;;;;;8.20;82.45;98215.38;5040586;28;19935;-56
2022/12/25 01:14:01;;;;;;;;;;;;;;;8.28;82.28;98224.78;5103429;28;19927;-57
2022/12/25 01:16:32;;;;;;;;;;;;;;;8.28;82.06;98228.31;5098659;28;20373;-56
2022/12/25 01:19:01;;;;;;;;;;;;;;;8.21;82.42;98235.97;5081938;28;19931;-56
2022/12/25 01:21:29;;;;;;;;;;;;;;;8.19;82.46;98223.81;5092358;28;19924;-58
2022/12/25 01:23:58;;;;;;;;;;;;;;;8.00;82.92;98226.47;5099065;27;20380;-56
2022/12/25 01:26:26;;;;;;;;;;;;;;;8.17;82.49;98232.22;5104783;28;20421;-57
2022/12/25 01:28:58;;;;;;;;;;;;;;;8.16;82.45;98227.91;5102238;28;19932;-57
2022/12/25 01:31:26;;;;;;;;;;;;;;;8.05;82.71;98221.00;5097051;28;20284;-56
2022/12/25 01:33:57;;;;;;;;;;;;;;;8.06;82.90;98225.31;5096020;28;19932;-57
2022/12/25 01:36:26;;;;;;;;;;;;;;;7.96;83.06;98225.41;5101995;28;19928;-57
2022/12/25 01:38:55;;;;;;;;;;;;;;;7.92;83.02;98229.78;5104485;28;19965;-57
2022/12/25 01:41:23;;;;;;;;;;;;;;;7.88;82.98;98221.41;5103337;28;19932;-56
2022/12/25 01:44:02;;;;;;;;;;;;;;;7.86;83.15;98221.72;5096809;28;19932;-56
2022/12/25 01:46:30;;;;;;;;;;;;;;;7.91;83.25;98222.75;5095027;28;19939;-61
2022/12/25 01:48:59;;;;;;;;;;;;;;;7.86;83.48;98221.72;5090498;28;19924;-56
2022/12/25 01:51:30;;;;;;;;;;;;;;;7.91;83.36;98220.84;5099706;28;19924;-56
2022/12/25 01:54:00;;;;;;;;;;;;;;;7.91;83.19;98220.06;5098121;28;19935;-57
2022/12/25 01:56:30;;;;;;;;;;;;;;;7.93;83.38;98221.38;5105746;27;19923;-59
2022/12/25 01:58:58;;;;;;;;;;;;;;;7.97;83.11;98221.59;5104357;28;19931;-58
2022/12/25 02:01:26;;;;;;;;;;;;;;;7.97;83.26;98219.72;5102545;28;20484;-56
2022/12/25 02:03:56;;;;;;;;;;;;;;;8.07;82.77;98216.09;5093734;28;19924;-57
2022/12/25 02:06:25;;;;;;;;;;;;;;;8.12;82.31;98213.34;5097289;28;19924;-57
2022/12/25 02:08:55;;;;;;;;;;;;;;;8.03;82.85;98215.84;5094714;28;20277;-57
2022/12/25 02:14:07;;;;;;;;;;;;;;;8.02;83.03;98219.66;5097576;28;20028;-57
2022/12/25 02:16:37;;;;;;;;;;;;;;;8.08;82.76;98217.69;5103770;28;20295;-57
2022/12/25 02:19:28;;;;;;;;;;;;;;;8.10;82.31;98224.44;5092864;28;20397;-56
2022/12/25 02:21:59;;;;;;;;;;;;;;;8.03;82.43;98232.09;5101091;28;19928;-57
2022/12/25 02:24:43;;;;;;;;;;;;;;;7.99;82.74;98222.94;5102173;28;19924;-59
2022/12/25 02:27:18;;;;;;;;;;;;;;;7.98;82.72;98225.91;5066226;28;19955;-57
2022/12/25 02:29:49;;;;;;;;;;;;;;;7.99;82.78;98222.94;5099464;28;19931;-57
2022/12/25 02:32:21;;;;;;;;;;;;;;;7.82;82.96;98226.06;5093051;28;20387;-56
2022/12/25 02:34:50;;;;;;;;;;;;;;;7.93;82.69;98223.25;5093684;28;19924;-57
2022/12/25 02:37:19;;;;;;;;;;;;;;;7.84;83.02;98226.59;5102827;28;19928;-57
2022/12/25 02:39:58;;;;;;;;;;;;;;;7.84;83.14;98229.31;5102277;28;20353;-56
2022/12/25 03:07:56;;;;;;;;;;;;;;;7.80;83.20;98217.44;5099684;28;19928;-57
2022/12/25 03:13:11;;;;;;;;;;;;;;;7.78;83.08;98214.22;5096929;28;20341;-61
2022/12/25 03:18:27;;;;;;;;;;;;;;;7.61;83.57;98194.91;5099634;28;19924;-56
2022/12/25 03:26:55;;;;;;;;;;;;;;;7.64;83.66;98191.63;5080320;28;19924;-56
2022/12/25 03:32:10;;;;;;;;;;;;;;;7.58;83.58;98181.97;5066299;28;19925;-56
2022/12/25 04:36:25;;;;;;;;;;;;;;;6.85;85.38;98176.59;5083985;28;19924;-56
2022/12/25 04:38:53;;;;;;;;;;;;;;;6.92;85.07;98180.59;5094734;28;19928;-56
2022/12/25 04:41:22;;;;;;;;;;;;;;;6.78;84.76;98191.22;5094358;28;19928;-59
2022/12/25 04:43:51;;;;;;;;;;;;;;;6.74;85.34;98200.97;5096565;28;19928;-56
2022/12/25 04:46:18;;;;;;;;;;;;;;;6.78;85.38;98201.22;5106268;28;19924;-56
2022/12/25 04:48:47;;;;;;;;;;;;;;;6.75;85.44;98202.56;5108832;28;19931;-57
2022/12/25 04:51:16;;;;;;;;;;;;;;;6.75;85.67;98197.19;5094959;28;20269;-56
2022/12/25 04:53:44;;;;;;;;;;;;;;;6.72;85.15;98202.34;5096935;28;19924;-59
2022/12/25 04:56:14;;;;;;;;;;;;;;;6.77;85.34;98195.03;5087121;28;19931;-56
2022/12/25 04:58:43;;;;;;;;;;;;;;;6.69;85.13;98197.50;5110007;28;20283;-56
2022/12/25 05:01:12;;;;;;;;;;;;;;;6.62;85.12;98203.22;5082833;28;19928;-57
2022/12/25 05:03:41;;;;;;;;;;;;;;;6.55;85.42;98192.72;5101300;28;19931;-56
2022/12/25 05:06:09;;;;;;;;;;;;;;;6.46;86.01;98193.56;5107698;28;19932;-62
2022/12/25 05:08:37;;;;;;;;;;;;;;;6.46;86.33;98198.97;5103082;28;19936;-61
2022/12/25 05:11:06;;;;;;;;;;;;;;;6.49;86.24;98193.81;5098249;28;19924;-59
2022/12/25 05:13:35;;;;;;;;;;;;;;;6.65;85.70;98191.03;5107083;28;19933;-57
2022/12/25 05:16:06;;;;;;;;;;;;;;;6.62;85.59;98191.59;5103511;28;19935;-56
2022/12/25 05:18:34;;;;;;;;;;;;;;;6.68;85.11;98187.78;5104519;28;19935;-59
2022/12/25 05:21:03;;;;;;;;;;;;;;;6.63;85.25;98182.41;5085457;28;19935;-57
2022/12/25 05:23:31;;;;;;;;;;;;;;;6.59;85.55;98184.84;5106421;28;20272;-59
2022/12/25 05:25:59;;;;;;;;;;;;;;;6.60;85.70;98189.16;5105025;28;19930;-56
2022/12/25 05:28:27;;;;;;;;;;;;;;;6.63;85.50;98182.41;5094430;28;20465;-61
2022/12/25 05:30:56;;;;;;;;;;;;;;;6.59;85.41;98182.16;5103839;28;19962;-56
2022/12/25 05:33:25;;;;;;;;;;;;;;;6.60;85.51;98182.97;5108531;28;19949;-56
2022/12/25 05:35:53;;;;;;;;;;;;;;;6.64;85.50;98182.13;5101309;28;19932;-58
2022/12/25 05:38:22;;;;;;;;;;;;;;;6.56;84.98;98172.75;5077274;28;19982;-56
2022/12/25 05:40:50;;;;;;;;;;;;;;;6.63;84.73;98175.13;5095611;28;20033;-56
2022/12/25 05:43:19;;;;;;;;;;;;;;;6.49;85.03;98166.81;5084065;28;19974;-56
2022/12/25 05:45:47;;;;;;;;;;;;;;;6.43;84.87;98161.72;5096650;28;19928;-58
2022/12/25 05:48:15;;;;;;;;;;;;;;;6.46;84.83;98163.88;5097711;28;19935;-56
2022/12/25 05:50:45;;;;;;;;;;;;;;;6.43;85.11;98162.53;5098215;28;19930;-58
2022/12/25 05:53:13;;;;;;;;;;;;;;;6.42;84.75;98160.13;5096546;28;20407;-56
2022/12/25 05:55:42;;;;;;;;;;;;;;;6.40;84.84;98156.91;5087311;28;19924;-56
2022/12/25 05:58:11;;;;;;;;;;;;;;;6.34;85.15;98156.13;5079644;28;19923;-57
2022/12/25 06:01:04;;;;;;;;;;;;;;;6.32;84.96;98154.78;5084202;28;19931;-56
2022/12/25 06:03:33;;;;;;;;;;;;;;;6.36;85.29;98158.53;5102614;28;19930;-56
2022/12/25 06:06:03;;;;;;;;;;;;;;;6.42;85.55;98163.63;5097259;28;19924;-62
2022/12/25 06:08:33;;;;;;;;;;;;;;;6.60;84.75;98164.88;5093274;28;20541;-63
2022/12/25 06:11:04;;;;;;;;;;;;;;;6.61;84.56;98163.00;5096936;28;20309;-56
2022/12/25 06:13:34;;;;;;;;;;;;;;;6.66;84.45;98166.47;5083359;28;19932;-56
2022/12/25 06:16:03;;;;;;;;;;;;;;;6.70;83.95;98156.72;5091670;28;20040;-57
2022/12/25 06:18:34;;;;;;;;;;;;;;;6.50;84.27;98159.56;5102791;28;19931;-57
2022/12/25 06:21:07;;;;;;;;;;;;;;;6.61;84.02;98158.41;5097081;28;20689;-64
2022/12/25 06:23:35;;;;;;;;;;;;;;;6.63;84.22;98164.31;5095151;28;19924;-57
2022/12/25 06:26:29;;;;;;;;;;;;;;;6.74;83.25;98173.97;5067533;28;19954;-56
2022/12/25 06:28:57;;;;;;;;;;;;;;;6.73;83.88;98166.97;5053858;28;19932;-57
2022/12/25 06:31:25;;;;;;;;;;;;;;;6.66;83.80;98169.19;5055696;28;19925;-56
2022/12/25 06:33:53;;;;;;;;;;;;;;;6.63;83.89;98167.03;5053226;28;20301;-56
2022/12/25 06:36:23;;;;;;;;;;;;;;;6.72;83.24;98159.16;5052129;28;19936;-56
2022/12/25 06:38:51;;;;;;;;;;;;;;;6.55;84.24;98154.94;5061197;28;19928;-57
2022/12/25 06:41:20;;;;;;;;;;;;;;;6.69;84.15;98152.41;5059036;28;20345;-57
2022/12/25 06:43:48;;;;;;;;;;;;;;;6.77;83.84;98151.03;5052775;28;20023;-57
2022/12/25 06:46:16;;;;;;;;;;;;;;;6.69;84.20;98152.41;5059681;28;19940;-60
2022/12/25 06:48:48;;;;;;;;;;;;;;;6.83;83.87;98161.50;5054566;28;19924;-57
2022/12/25 06:51:16;;;;;;;;;;;;;;;6.90;83.62;98177.38;5063263;28;20064;-68
2022/12/25 06:53:46;;;;;;;;;;;;;;;6.74;84.24;98176.66;5064997;28;20015;-57
2022/12/25 06:56:15;;;;;;;;;;;;;;;6.91;83.68;98172.78;5065878;28;20412;-58
2022/12/25 06:58:43;;;;;;;;;;;;;;;6.92;83.88;98168.97;5063836;28;20281;-62
2022/12/25 07:01:14;;;;;;;;;;;;;;;7.16;83.19;98178.00;5062509;28;19925;-57
2022/12/25 07:03:43;;;;;;;;;;;;;;;7.14;82.90;98185.59;5058683;28;19971;-62
2022/12/25 07:06:11;;;;;;;;;;;;;;;7.16;82.74;98180.69;5068130;28;19924;-56
2022/12/25 07:08:39;;;;;;;;;;;;;;;7.15;83.01;98184.50;5058257;28;19951;-56
2022/12/25 07:11:09;;;;;;;;;;;;;;;7.22;82.41;98184.16;5061764;28;19924;-56
2022/12/25 07:13:37;;;;;;;;;;;;;;;7.19;82.83;98182.84;5056080;28;19939;-57
2022/12/25 07:16:06;;;;;;;;;;;;;;;7.18;82.48;98177.72;5064214;28;19931;-57
2022/12/25 07:18:35;;;;;;;;;;;;;;;7.23;82.42;98181.19;5059075;28;19925;-56
2022/12/25 07:21:07;;;;;;;;;;;;;;;7.21;82.60;98185.25;5060968;28;20071;-59
2022/12/25 07:23:35;;;;;;;;;;;;;;;7.13;82.30;98189.34;5059227;28;19932;-56
2022/12/25 07:26:30;;;;;;;;;;;;;;;7.23;82.01;98197.38;5086643;28;20051;-57
2022/12/25 07:28:58;;;;;;;;;;;;;;;7.20;82.46;98197.16;5101331;28;20198;-56
2022/12/25 07:31:27;;;;;;;;;;;;;;;7.11;82.32;98193.44;5095552;28;19924;-58
2022/12/25 07:33:55;;;;;;;;;;;;;;;7.01;82.20;98184.31;5097032;28;19973;-56
2022/12/25 07:36:23;;;;;;;;;;;;;;;7.06;82.38;98180.78;5095791;28;20365;-56
2022/12/25 07:38:51;;;;;;;;;;;;;;;7.03;82.18;98184.88;5091903;28;19932;-56
2022/12/25 07:41:19;;;;;;;;;;;;;;;7.00;82.31;98193.50;5105576;28;19935;-60
2022/12/25 07:43:51;;;;;;;;;;;;;;;6.98;82.82;98190.31;5109952;28;19963;-56
2022/12/25 07:46:20;;;;;;;;;;;;;;;7.02;82.32;98185.13;5105162;28;19928;-56
2022/12/25 07:48:48;;;;;;;;;;;;;;;7.01;82.50;98178.91;5092207;28;19924;-58
2022/12/25 07:51:22;;;;;;;;;;;;;;;6.97;82.59;98172.47;5103554;28;19931;-57
2022/12/25 07:53:51;;;;;;;;;;;;;;;6.83;83.06;98161.50;5093270;28;20292;-58
2022/12/25 07:56:20;;;;;;;;;;;;;;;6.98;82.63;98159.78;5089422;28;20000;-56
2022/12/25 07:58:48;;;;;;;;;;;;;;;7.00;82.76;98157.59;5099805;28;19931;-57
2022/12/25 08:01:18;;;;;;;;;;;;;;;6.91;82.90;98156.56;5094023;28;19951;-56
2022/12/25 08:03:51;;;;;;;;;;;;;;;6.85;82.99;98163.91;5102194;28;19962;-59
2022/12/25 08:06:20;;;;;;;;;;;;;;;6.92;83.19;98155.47;5096934;28;19936;-61
2022/12/25 08:08:48;;;;;;;;;;;;;;;6.92;82.90;98164.38;5097052;28;19924;-61
2022/12/25 08:11:18;;;;;;;;;;;;;;;6.94;83.32;98158.72;5096163;28;19931;-61
2022/12/25 08:13:46;;;;;;;;;;;;;;;7.02;82.77;98168.91;5088252;28;19931;-61
2022/12/25 08:16:14;;;;;;;;;;;;;;;7.11;82.69;98178.03;5080546;28;20293;-61
2022/12/25 08:18:44;;;;;;;;;;;;;;;6.99;82.73;98175.69;5105733;28;19931;-61
2022/12/25 08:21:13;;;;;;;;;;;;;;;7.16;82.75;98167.19;5095280;28;19924;-61
2022/12/25 08:24:06;;;;;;;;;;;;;;;7.12;82.93;98163.44;5102414;28;19947;-61
2022/12/25 08:26:35;;;;;;;;;;;;;;;7.24;82.58;98147.66;5074191;28;19939;-61
2022/12/25 08:29:08;;;;;;;;;;;;;;;7.28;82.67;98151.41;5067563;28;20103;-61
2022/12/25 08:31:36;;;;;;;;;;;;;;;7.23;82.76;98142.53;5064413;28;19978;-61
2022/12/25 08:34:14;;;;;;;;;;;;;;;7.11;83.20;98134.81;5071676;28;19928;-61
2022/12/25 08:36:42;;;;;;;;;;;;;;;7.14;83.18;98128.84;5067054;28;20309;-61
2022/12/25 08:39:35;;;;;;;;;;;;;;;7.14;83.05;98130.72;5067363;28;19928;-60
2022/12/25 08:42:04;;;;;;;;;;;;;;;7.26;82.67;98126.56;5068646;28;19982;-61
2022/12/25 08:44:33;;;;;;;;;;;;;;;7.45;82.34;98126.66;5072141;28;19936;-61
2022/12/25 08:47:04;;;;;;;;;;;;;;;7.30;82.89;98127.63;5064835;28;19933;-62
2022/12/25 08:49:34;;;;;;;;;;;;;;;7.43;82.65;98133.44;5076415;28;19928;-61
2022/12/25 08:52:03;;;;;;;;;;;;;;;7.42;82.69;98137.25;5068026;28;20368;-61
2022/12/25 08:54:35;;;;;;;;;;;;;;;7.65;82.04;98144.56;5062267;28;19932;-61
2022/12/25 08:57:03;;;;;;;;;;;;;;;7.71;81.82;98156.94;5067188;28;19943;-63
2022/12/25 08:59:31;;;;;;;;;;;;;;;7.75;81.61;98154.47;5069141;28;19925;-65
2022/12/25 09:02:00;;;;;;;;;;;;;;;7.91;81.42;98155.94;5066698;28;19928;-61
2022/12/25 09:04:28;;;;;;;;;;;;;;;7.95;81.51;98156.16;5071767;28;19991;-61
2022/12/25 09:06:58;;;;;;;;;;;;;;;8.11;81.04;98152.19;5076448;28;19928;-62
2022/12/25 09:09:26;;;;;;;;;;;;;;;8.19;80.83;98153.44;5070667;28;19951;-62
2022/12/25 09:11:54;;;;;;;;;;;;;;;8.29;80.35;98143.28;5063930;28;20031;-61
2022/12/25 09:17:14;;;;;;;;;;;;;;;8.40;80.14;98139.38;5064013;28;19928;-62
2022/12/25 09:20:07;;;;;;;;;;;;;;;8.47;79.84;98147.16;5058778;28;19932;-61
2022/12/25 09:22:36;;;;;;;;;;;;;;;8.32;80.66;98144.63;5061255;28;19928;-61
2022/12/25 09:25:29;;;;;;;;;;;;;;;8.59;79.80;98157.56;5063372;28;20013;-61
2022/12/25 09:28:22;;;;;;;;;;;;;;;8.65;79.74;98161.81;5067997;28;19932;-61
2022/12/25 09:30:51;;;;;;;;;;;;;;;8.71;79.56;98168.75;5064325;28;19932;-61
2022/12/25 09:33:19;;;;;;;;;;;;;;;8.81;79.29;98170.53;5067899;28;19925;-61
2022/12/25 09:35:52;;;;;;;;;;;;;;;8.88;79.19;98169.03;5074332;28;19924;-62
2022/12/25 09:38:22;;;;;;;;;;;;;;;8.96;79.08;98172.22;5064319;28;19947;-61
2022/12/25 09:41:03;;;;;;;;;;;;;;;9.08;78.61;98170.63;5069538;28;19931;-61
2022/12/25 09:43:32;;;;;;;;;;;;;;;9.09;78.12;98155.19;5072314;28;19929;-62
2022/12/25 09:46:00;;;;;;;;;;;;;;;9.22;77.24;98157.16;5063382;28;20385;-61
2022/12/25 09:48:29;;;;;;;;;;;;;;;9.22;77.10;98146.31;5081794;28;19939;-61
2022/12/25 09:50:57;;;;;;;;;;;;;;;9.21;77.05;98150.09;5070382;28;19929;-61
2022/12/25 09:53:27;;;;;;;;;;;;;;;9.24;77.42;98144.09;5071089;28;19974;-61
2022/12/25 09:55:58;;;;;;;;;;;;;;;9.25;77.33;98137.56;5064865;28;20292;-61
2022/12/25 09:58:50;;;;;;;;;;;;;;;9.31;76.67;98130.16;5067249;28;20022;-61
2022/12/25 10:01:20;;;;;;;;;;;;;;;9.41;76.19;98119.94;5065291;28;20011;-61
2022/12/25 10:04:09;;;;;;;;;;;;;;;9.48;76.16;98119.56;5063093;28;20273;-61
2022/12/25 10:06:39;;;;;;;;;;;;;;;9.42;76.09;98107.97;5068357;28;19932;-61
2022/12/25 10:09:18;;;;;;;;;;;;;;;9.37;76.88;98097.22;5068984;28;19959;-61
2022/12/25 10:11:52;;;;;;;;;;;;;;;9.32;76.91;98089.22;5061023;28;19924;-61
2022/12/25 10:14:46;;;;;;;;;;;;;;;9.49;75.99;98080.50;5084167;28;20386;-61
2022/12/25 10:17:18;;;;;;;;;;;;;;;9.66;76.32;98067.13;5065851;28;19933;-61
2022/12/25 10:20:13;;;;;;;;;;;;;;;9.75;75.71;98053.69;5063456;28;20002;-61
2022/12/25 10:22:42;;;;;;;;;;;;;;;9.91;74.69;98033.25;5067277;28;19966;-63
2022/12/25 10:25:15;;;;;;;;;;;;;;;10.09;74.05;98019.84;5061848;28;19935;-61
2022/12/25 10:27:43;;;;;;;;;;;;;;;10.12;73.72;98019.22;5107442;27;19924;-61
2022/12/25 10:30:16;;;;;;;;;;;;;;;10.24;73.12;98016.84;5102918;28;19928;-61
2022/12/25 10:32:47;;;;;;;;;;;;;;;10.31;71.98;98016.41;5094299;28;19928;-62
2022/12/25 10:35:15;;;;;;;;;;;;;;;10.25;72.40;98023.06;5102640;28;19924;-61
2022/12/25 10:37:44;;;;;;;;;;;;;;;10.08;73.03;98029.91;5087880;28;19924;-62
2022/12/25 10:40:24;;;;;;;;;;;;;;;10.08;72.94;98046.19;5085912;28;19932;-61
2022/12/25 10:42:52;;;;;;;;;;;;;;;10.08;73.50;98042.69;5092011;28;19928;-62
2022/12/25 10:45:20;;;;;;;;;;;;;;;10.10;72.79;98062.97;5090241;28;20438;-61
2022/12/25 10:47:48;;;;;;;;;;;;;;;10.10;73.11;98059.47;5098763;28;19924;-61
2022/12/25 10:50:27;;;;;;;;;;;;;;;10.09;73.14;98061.38;5078127;28;20331;-62
2022/12/25 10:52:56;;;;;;;;;;;;;;;10.15;73.46;98068.28;5089995;28;20014;-61
2022/12/25 10:55:28;;;;;;;;;;;;;;;10.28;73.37;98065.88;5102085;28;20376;-61
2022/12/25 10:57:57;;;;;;;;;;;;;;;10.35;73.10;98067.09;5086125;28;20361;-61
2022/12/25 11:00:28;;;;;;;;;;;;;;;10.53;72.28;98068.03;5093041;28;19927;-62
2022/12/25 11:02:57;;;;;;;;;;;;;;;10.56;71.81;98062.00;5103132;27;19978;-62
2022/12/25 11:05:27;;;;;;;;;;;;;;;10.63;71.41;98061.56;5067639;28;20014;-63
2022/12/25 11:07:55;;;;;;;;;;;;;;;10.90;71.22;98038.88;5098312;28;19923;-62
2022/12/25 11:10:24;;;;;;;;;;;;;;;11.02;71.11;98048.09;5101675;28;20415;-62
2022/12/25 11:12:54;;;;;;;;;;;;;;;11.04;71.06;98052.44;5109152;28;19927;-62
2022/12/25 11:15:30;;;;;;;;;;;;;;;10.94;70.93;98057.00;5085233;28;19928;-62
2022/12/25 11:18:00;;;;;;;;;;;;;;;10.94;71.02;98045.31;5108859;28;19927;-62
2022/12/25 11:20:29;;;;;;;;;;;;;;;10.96;70.41;98043.88;5091372;28;20404;-62
2022/12/25 11:22:57;;;;;;;;;;;;;;;11.09;71.37;98025.09;5092032;28;20338;-62
2022/12/25 11:25:27;;;;;;;;;;;;;;;11.13;70.25;98015.19;5103170;28;19924;-62
2022/12/25 11:28:00;;;;;;;;;;;;;;;11.16;69.83;98003.69;5110548;28;19947;-62
2022/12/25 11:30:55;;;;;;;;;;;;;;;11.14;69.95;98008.66;5102755;28;19935;-62
2022/12/25 11:33:24;;;;;;;;;;;;;;;11.20;69.85;98010.13;5103768;28;19989;-63
2022/12/25 11:35:52;;;;;;;;;;;;;;;11.14;70.52;98001.31;5106743;28;20282;-63
2022/12/25 11:38:20;;;;;;;;;;;;;;;11.13;70.46;97998.88;5103582;28;19928;-69
2022/12/25 11:43:45;;;;;;;;;;;;;;;11.08;70.23;97980.81;5086976;28;19924;-63
2022/12/25 11:46:16;;;;;;;;;;;;;;;11.13;69.72;97971.69;5087610;28;19957;-63
2022/12/25 11:48:45;;;;;;;;;;;;;;;11.08;69.92;97979.97;5113130;28;19924;-63
2022/12/25 11:51:13;;;;;;;;;;;;;;;11.06;71.09;97972.13;5112052;28;19924;-62
2022/12/25 11:53:48;;;;;;;;;;;;;;;11.01;70.76;97970.34;5098432;28;19932;-62
2022/12/25 11:56:17;;;;;;;;;;;;;;;10.88;71.01;97960.38;5105951;28;19924;-62
2022/12/25 11:58:47;;;;;;;;;;;;;;;11.06;70.37;97968.63;5099929;28;19924;-62
2022/12/25 12:01:16;;;;;;;;;;;;;;;11.06;71.00;97960.47;5110104;28;20370;-62
2022/12/25 12:03:44;;;;;;;;;;;;;;;11.05;70.71;97969.75;5103153;28;19931;-62
2022/12/25 12:06:13;;;;;;;;;;;;;;;11.03;71.05;97967.34;5103449;28;19924;-62
2022/12/25 12:08:42;;;;;;;;;;;;;;;11.06;70.82;97963.19;5081007;28;19924;-61
2022/12/25 12:11:16;;;;;;;;;;;;;;;11.10;70.96;97958.72;5092751;28;21060;-62
2022/12/25 12:13:50;;;;;;;;;;;;;;;11.11;71.21;97952.19;5079554;27;20012;-62
2022/12/25 12:16:18;;;;;;;;;;;;;;;11.02;71.02;97952.94;5075222;28;19931;-62
2022/12/25 12:18:47;;;;;;;;;;;;;;;10.98;71.08;97946.53;5082311;28;20403;-62
2022/12/25 12:21:21;;;;;;;;;;;;;;;10.92;71.42;97946.97;5087103;28;19924;-62
2022/12/25 12:23:53;;;;;;;;;;;;;;;10.83;71.84;97943.41;5101311;28;19930;-63
2022/12/25 12:26:22;;;;;;;;;;;;;;;10.87;71.63;97928.91;5094770;28;19954;-62
2022/12/25 12:28:55;;;;;;;;;;;;;;;10.91;72.05;97932.56;5106277;28;19934;-62
2022/12/25 12:31:23;;;;;;;;;;;;;;;11.17;71.15;97934.59;5098797;28;19935;-62
2022/12/25 12:33:52;;;;;;;;;;;;;;;11.18;71.21;97923.41;5081070;28;19998;-62
2022/12/25 12:36:21;;;;;;;;;;;;;;;11.22;71.15;97920.88;5109270;28;19923;-62
2022/12/25 12:39:01;;;;;;;;;;;;;;;11.34;71.11;97914.81;5083815;28;19928;-62
2022/12/25 12:41:40;;;;;;;;;;;;;;;11.38;70.81;97913.06;5103191;28;19945;-62
2022/12/25 12:44:11;;;;;;;;;;;;;;;11.44;70.32;97914.53;5095822;28;19924;-63
2022/12/25 12:46:41;;;;;;;;;;;;;;;11.45;70.45;97906.06;5107441;28;20339;-63
2022/12/25 12:49:35;;;;;;;;;;;;;;;11.39;70.55;97899.16;5102699;28;19923;-64
2022/12/25 12:52:04;;;;;;;;;;;;;;;11.30;70.56;97895.63;5078332;28;20336;-62
2022/12/25 12:54:31;;;;;;;;;;;;;;;11.17;71.23;97889.16;5074020;28;20402;-63
2022/12/25 12:57:00;;;;;;;;;;;;;;;11.14;71.88;97894.47;5084635;28;19927;-62
2022/12/25 12:59:32;;;;;;;;;;;;;;;11.05;72.03;97885.47;5107167;28;20253;-64
2022/12/25 13:02:03;;;;;;;;;;;;;;;11.13;72.38;97880.06;5096718;28;19928;-62
2022/12/25 13:04:38;;;;;;;;;;;;;;;11.14;72.14;97891.75;5100260;28;19924;-62
2022/12/25 13:07:10;;;;;;;;;;;;;;;11.23;71.70;97900.72;5091810;28;20361;-62
2022/12/25 13:09:43;;;;;;;;;;;;;;;11.10;72.45;97907.06;5103434;28;19928;-62
2022/12/25 13:12:15;;;;;;;;;;;;;;;11.12;72.74;97902.13;5103121;28;20391;-63
2022/12/25 13:14:46;;;;;;;;;;;;;;;11.15;72.03;97898.78;5107632;28;19931;-62
2022/12/25 13:17:17;;;;;;;;;;;;;;;11.09;72.55;97897.31;5102658;28;19931;-62
2022/12/25 13:20:12;;;;;;;;;;;;;;;11.13;72.12;97895.56;5100474;28;20384;-62
2022/12/25 13:22:40;;;;;;;;;;;;;;;11.11;72.55;97901.31;5103542;28;20349;-63
2022/12/25 13:25:14;;;;;;;;;;;;;;;11.22;72.28;97899.91;5106946;28;19931;-68
2022/12/25 13:27:54;;;;;;;;;;;;;;;11.11;72.22;97893.16;5108815;28;19924;-63
2022/12/25 13:30:48;;;;;;;;;;;;;;;11.19;72.16;97880.72;5099348;28;19931;-63
2022/12/25 13:33:21;;;;;;;;;;;;;;;11.27;71.64;97885.38;5093122;28;20306;-62
2022/12/25 13:35:48;;;;;;;;;;;;;;;11.22;71.89;97880.06;5094805;28;19923;-62
2022/12/25 13:38:17;;;;;;;;;;;;;;;11.19;72.45;97886.16;5084036;28;20292;-62
2022/12/25 13:42:04;;;;;;;;;;;;;;;11.20;71.39;97885.03;5103844;28;19989;-63
2022/12/25 13:43:42;;;;;;;;;;;;;;;11.18;71.58;97877.19;5103517;28;20388;-63
2022/12/25 13:46:13;;;;;;;;;;;;;;;11.16;72.01;97868.53;5103782;28;20296;-63
2022/12/25 13:48:40;;;;;;;;;;;;;;;11.17;72.00;97869.34;5101531;28;19960;-63
2022/12/25 13:51:11;;;;;;;;;;;;;;;11.10;72.14;97869.00;5100082;28;19972;-62
2022/12/25 13:53:40;;;;;;;;;;;;;;;11.10;72.70;97869.00;5098488;28;20014;-62
2022/12/25 13:56:12;;;;;;;;;;;;;;;11.23;71.73;97865.34;5109286;28;20379;-63
2022/12/25 13:58:40;;;;;;;;;;;;;;;11.09;72.01;97870.13;5100363;28;20003;-62
2022/12/25 14:01:10;;;;;;;;;;;;;;;11.09;72.30;97872.84;5095721;28;19937;-62
2022/12/25 14:03:41;;;;;;;;;;;;;;;10.97;72.77;97868.81;5097810;28;19925;-62
2022/12/25 14:06:16;;;;;;;;;;;;;;;10.91;72.83;97861.91;5093386;28;19924;-63
2022/12/25 14:08:44;;;;;;;;;;;;;;;10.91;73.16;97872.78;5103267;28;19936;-62
2022/12/25 14:11:14;;;;;;;;;;;;;;;10.87;73.04;97874.53;5098108;28;20281;-62
2022/12/25 14:13:43;;;;;;;;;;;;;;;10.86;72.92;97869.41;5107605;27;20660;-64
2022/12/25 14:16:15;;;;;;;;;;;;;;;10.73;73.66;97873.81;5104505;28;19931;-63
2022/12/25 14:18:51;;;;;;;;;;;;;;;10.71;74.00;97874.16;5084015;28;19924;-63
2022/12/25 14:21:24;;;;;;;;;;;;;;;10.74;73.84;97870.00;5102573;28;19973;-62
2022/12/25 14:23:52;;;;;;;;;;;;;;;10.63;74.12;97869.47;5095384;28;19932;-63
2022/12/25 14:26:21;;;;;;;;;;;;;;;10.66;74.10;97879.72;5099198;28;19947;-63
2022/12/25 14:28:52;;;;;;;;;;;;;;;10.55;74.65;97881.09;5103113;28;19928;-62
2022/12/25 14:31:22;;;;;;;;;;;;;;;10.52;74.87;97883.63;5102592;28;20615;-63
2022/12/25 14:33:53;;;;;;;;;;;;;;;10.47;74.77;97879.94;5086263;28;19925;-63
2022/12/25 14:36:20;;;;;;;;;;;;;;;10.53;74.62;97879.78;5084193;28;19930;-62
2022/12/25 14:38:55;;;;;;;;;;;;;;;10.48;74.83;97886.97;5086864;28;19931;-62
2022/12/25 14:41:33;;;;;;;;;;;;;;;10.33;75.54;97891.97;5100951;28;19967;-62
2022/12/25 14:44:01;;;;;;;;;;;;;;;10.23;76.01;97885.69;5101068;28;19928;-62
2022/12/25 14:46:31;;;;;;;;;;;;;;;10.25;76.39;97885.38;5103676;28;19931;-62
2022/12/25 14:49:01;;;;;;;;;;;;;;;10.16;76.61;97874.44;5098392;28;19955;-63
2022/12/25 14:51:52;;;;;;;;;;;;;;;10.13;76.85;97872.34;5101521;28;20377;-62
2022/12/25 14:54:21;;;;;;;;;;;;;;;10.12;77.15;97873.47;5096491;28;19924;-62
2022/12/25 14:56:50;;;;;;;;;;;;;;;10.08;77.42;97875.19;5104326;28;20118;-63
2022/12/25 14:59:19;;;;;;;;;;;;;;;10.04;77.58;97870.69;5084616;28;19924;-63
2022/12/25 15:01:50;;;;;;;;;;;;;;;10.00;77.88;97864.25;5102500;28;19928;-62
2022/12/25 15:04:21;;;;;;;;;;;;;;;10.01;77.68;97858.50;5113324;28;20006;-63
2022/12/25 15:06:52;;;;;;;;;;;;;;;10.05;77.03;97835.06;5101286;28;20278;-62